sensor_id;sensor_type;location;lat;lon;timestamp;P1;durP1;ratioP1;P2;durP2;ratioP2
53961;SDS011;39868;53.398;6.564;2024-03-25T00:00:09;14.30;;;12.50;;
53961;SDS011;39868;53.398;6.564;2024-03-25T00:02:37;13.20;;;12.00;;
53961;SDS011;39868;53.398;6.564;2024-03-25T00:05:04;12.63;;;11.93;;
53961;SDS011;39868;53.398;6.564;2024-03-25T00:07:32;13.02;;;11.90;;
53961;SDS011;39868;53.398;6.564;2024-03-25T00:09:58;12.93;;;11.52;;
53961;SDS011;39868;53.398;6.564;2024-03-25T00:12:25;13.02;;;11.93;;
53961;SDS011;39868;53.398;6.564;2024-03-25T00:14:51;13.38;;;12.05;;
53961;SDS011;39868;53.398;6.564;2024-03-25T00:17:17;12.55;;;11.70;;
53961;SDS011;39868;53.398;6.564;2024-03-25T00:19:45;12.40;;;11.48;;
53961;SDS011;39868;53.398;6.564;2024-03-25T00:24:48;12.93;;;11.82;;
53961;SDS011;39868;53.398;6.564;2024-03-25T00:27:14;12.80;;;11.65;;
53961;SDS011;39868;53.398;6.564;2024-03-25T00:29:41;16.85;;;11.98;;
53961;SDS011;39868;53.398;6.564;2024-03-25T00:32:07;13.95;;;12.00;;
53961;SDS011;39868;53.398;6.564;2024-03-25T00:34:33;12.60;;;11.45;;
53961;SDS011;39868;53.398;6.564;2024-03-25T00:37:00;16.40;;;11.57;;
53961;SDS011;39868;53.398;6.564;2024-03-25T00:39:26;13.20;;;11.65;;
53961;SDS011;39868;53.398;6.564;2024-03-25T00:41:54;13.50;;;11.57;;
53961;SDS011;39868;53.398;6.564;2024-03-25T00:44:20;14.35;;;11.55;;
53961;SDS011;39868;53.398;6.564;2024-03-25T00:46:46;13.80;;;11.75;;
53961;SDS011;39868;53.398;6.564;2024-03-25T00:49:13;12.43;;;11.35;;
53961;SDS011;39868;53.398;6.564;2024-03-25T00:51:39;11.68;;;10.98;;
53961;SDS011;39868;53.398;6.564;2024-03-25T00:54:05;12.57;;;11.10;;
53961;SDS011;39868;53.398;6.564;2024-03-25T00:56:32;12.00;;;11.00;;
53961;SDS011;39868;53.398;6.564;2024-03-25T00:58:58;12.65;;;11.50;;
53961;SDS011;39868;53.398;6.564;2024-03-25T01:01:33;11.68;;;10.90;;
53961;SDS011;39868;53.398;6.564;2024-03-25T01:04:03;11.68;;;10.80;;
53961;SDS011;39868;53.398;6.564;2024-03-25T01:06:31;11.80;;;10.77;;
53961;SDS011;39868;53.398;6.564;2024-03-25T01:08:57;12.90;;;11.52;;
53961;SDS011;39868;53.398;6.564;2024-03-25T01:11:23;11.95;;;10.88;;
53961;SDS011;39868;53.398;6.564;2024-03-25T01:13:49;12.48;;;11.10;;
53961;SDS011;39868;53.398;6.564;2024-03-25T01:16:15;11.85;;;10.73;;
53961;SDS011;39868;53.398;6.564;2024-03-25T01:18:41;11.50;;;10.65;;
53961;SDS011;39868;53.398;6.564;2024-03-25T01:21:08;12.43;;;11.20;;
53961;SDS011;39868;53.398;6.564;2024-03-25T01:23:35;11.93;;;10.85;;
53961;SDS011;39868;53.398;6.564;2024-03-25T01:26:01;12.30;;;11.40;;
53961;SDS011;39868;53.398;6.564;2024-03-25T01:28:27;12.35;;;11.32;;
53961;SDS011;39868;53.398;6.564;2024-03-25T01:30:53;12.23;;;11.25;;
53961;SDS011;39868;53.398;6.564;2024-03-25T01:33:19;12.38;;;11.18;;
53961;SDS011;39868;53.398;6.564;2024-03-25T01:35:45;12.18;;;11.02;;
53961;SDS011;39868;53.398;6.564;2024-03-25T01:38:12;12.80;;;11.73;;
53961;SDS011;39868;53.398;6.564;2024-03-25T01:40:38;13.40;;;11.25;;
53961;SDS011;39868;53.398;6.564;2024-03-25T01:43:04;12.55;;;11.35;;
53961;SDS011;39868;53.398;6.564;2024-03-25T01:45:31;12.40;;;11.43;;
53961;SDS011;39868;53.398;6.564;2024-03-25T01:48:01;14.10;;;11.18;;
53961;SDS011;39868;53.398;6.564;2024-03-25T01:50:30;12.18;;;10.98;;
53961;SDS011;39868;53.398;6.564;2024-03-25T01:53:01;12.38;;;11.02;;
53961;SDS011;39868;53.398;6.564;2024-03-25T01:55:28;12.40;;;11.35;;
53961;SDS011;39868;53.398;6.564;2024-03-25T01:57:56;12.15;;;10.85;;
53961;SDS011;39868;53.398;6.564;2024-03-25T02:00:25;14.27;;;11.60;;
53961;SDS011;39868;53.398;6.564;2024-03-25T02:02:52;11.77;;;10.68;;
53961;SDS011;39868;53.398;6.564;2024-03-25T02:05:20;12.35;;;11.10;;
53961;SDS011;39868;53.398;6.564;2024-03-25T02:07:46;11.95;;;10.77;;
53961;SDS011;39868;53.398;6.564;2024-03-25T02:10:14;11.80;;;10.68;;
53961;SDS011;39868;53.398;6.564;2024-03-25T02:12:44;11.13;;;10.23;;
53961;SDS011;39868;53.398;6.564;2024-03-25T02:15:12;10.90;;;9.93;;
53961;SDS011;39868;53.398;6.564;2024-03-25T02:17:38;10.65;;;10.05;;
53961;SDS011;39868;53.398;6.564;2024-03-25T02:20:05;11.73;;;10.60;;
53961;SDS011;39868;53.398;6.564;2024-03-25T02:22:34;11.02;;;10.43;;
53961;SDS011;39868;53.398;6.564;2024-03-25T02:25:10;11.23;;;10.43;;
53961;SDS011;39868;53.398;6.564;2024-03-25T02:27:37;11.45;;;10.48;;
53961;SDS011;39868;53.398;6.564;2024-03-25T02:30:04;11.35;;;10.45;;
53961;SDS011;39868;53.398;6.564;2024-03-25T02:32:36;12.23;;;11.23;;
53961;SDS011;39868;53.398;6.564;2024-03-25T02:35:03;12.63;;;11.65;;
53961;SDS011;39868;53.398;6.564;2024-03-25T02:37:39;12.43;;;11.45;;
53961;SDS011;39868;53.398;6.564;2024-03-25T02:40:07;12.80;;;11.60;;
53961;SDS011;39868;53.398;6.564;2024-03-25T02:42:35;12.10;;;11.18;;
53961;SDS011;39868;53.398;6.564;2024-03-25T02:45:02;11.52;;;10.48;;
53961;SDS011;39868;53.398;6.564;2024-03-25T02:47:29;10.85;;;10.30;;
53961;SDS011;39868;53.398;6.564;2024-03-25T02:49:55;10.35;;;9.82;;
53961;SDS011;39868;53.398;6.564;2024-03-25T02:52:21;11.55;;;10.25;;
53961;SDS011;39868;53.398;6.564;2024-03-25T02:54:48;10.73;;;9.88;;
53961;SDS011;39868;53.398;6.564;2024-03-25T02:57:14;10.38;;;9.77;;
53961;SDS011;39868;53.398;6.564;2024-03-25T02:59:40;10.48;;;9.80;;
53961;SDS011;39868;53.398;6.564;2024-03-25T03:02:06;10.38;;;9.57;;
53961;SDS011;39868;53.398;6.564;2024-03-25T03:04:33;10.02;;;9.38;;
53961;SDS011;39868;53.398;6.564;2024-03-25T03:06:59;9.93;;;9.40;;
53961;SDS011;39868;53.398;6.564;2024-03-25T03:09:25;10.10;;;9.25;;
53961;SDS011;39868;53.398;6.564;2024-03-25T03:11:51;10.13;;;9.30;;
53961;SDS011;39868;53.398;6.564;2024-03-25T03:14:17;10.40;;;9.70;;
53961;SDS011;39868;53.398;6.564;2024-03-25T03:16:43;10.65;;;9.90;;
53961;SDS011;39868;53.398;6.564;2024-03-25T03:19:10;12.63;;;11.57;;
53961;SDS011;39868;53.398;6.564;2024-03-25T03:21:36;11.10;;;10.18;;
53961;SDS011;39868;53.398;6.564;2024-03-25T03:24:03;10.77;;;10.00;;
53961;SDS011;39868;53.398;6.564;2024-03-25T03:26:29;11.18;;;10.38;;
53961;SDS011;39868;53.398;6.564;2024-03-25T03:28:56;10.63;;;9.95;;
53961;SDS011;39868;53.398;6.564;2024-03-25T03:31:23;11.07;;;10.20;;
53961;SDS011;39868;53.398;6.564;2024-03-25T03:33:49;10.88;;;10.00;;
53961;SDS011;39868;53.398;6.564;2024-03-25T03:36:17;11.02;;;10.00;;
53961;SDS011;39868;53.398;6.564;2024-03-25T03:38:44;10.27;;;9.65;;
53961;SDS011;39868;53.398;6.564;2024-03-25T03:41:11;10.18;;;9.55;;
53961;SDS011;39868;53.398;6.564;2024-03-25T03:43:37;10.00;;;9.27;;
53961;SDS011;39868;53.398;6.564;2024-03-25T03:46:03;10.20;;;9.45;;
53961;SDS011;39868;53.398;6.564;2024-03-25T03:48:30;9.98;;;9.27;;
53961;SDS011;39868;53.398;6.564;2024-03-25T03:50:56;9.75;;;9.15;;
53961;SDS011;39868;53.398;6.564;2024-03-25T03:53:23;9.77;;;9.15;;
53961;SDS011;39868;53.398;6.564;2024-03-25T03:58:22;9.27;;;8.65;;
53961;SDS011;39868;53.398;6.564;2024-03-25T04:00:49;10.10;;;9.20;;
53961;SDS011;39868;53.398;6.564;2024-03-25T04:03:15;9.48;;;8.98;;
53961;SDS011;39868;53.398;6.564;2024-03-25T04:05:42;9.85;;;9.25;;
53961;SDS011;39868;53.398;6.564;2024-03-25T04:08:08;10.18;;;9.20;;
53961;SDS011;39868;53.398;6.564;2024-03-25T04:10:35;10.38;;;9.40;;
53961;SDS011;39868;53.398;6.564;2024-03-25T04:13:02;10.05;;;9.15;;
53961;SDS011;39868;53.398;6.564;2024-03-25T04:15:29;9.77;;;9.18;;
53961;SDS011;39868;53.398;6.564;2024-03-25T04:17:57;9.38;;;8.88;;
53961;SDS011;39868;53.398;6.564;2024-03-25T04:20:24;9.90;;;9.30;;
53961;SDS011;39868;53.398;6.564;2024-03-25T04:22:50;10.13;;;9.35;;
53961;SDS011;39868;53.398;6.564;2024-03-25T04:25:16;9.45;;;8.95;;
53961;SDS011;39868;53.398;6.564;2024-03-25T04:27:42;9.88;;;9.27;;
53961;SDS011;39868;53.398;6.564;2024-03-25T04:30:09;10.02;;;9.35;;
53961;SDS011;39868;53.398;6.564;2024-03-25T04:32:40;9.55;;;9.00;;
53961;SDS011;39868;53.398;6.564;2024-03-25T04:35:07;9.60;;;8.95;;
53961;SDS011;39868;53.398;6.564;2024-03-25T04:37:34;10.35;;;9.50;;
53961;SDS011;39868;53.398;6.564;2024-03-25T04:40:01;9.45;;;8.85;;
53961;SDS011;39868;53.398;6.564;2024-03-25T04:42:28;9.60;;;9.10;;
53961;SDS011;39868;53.398;6.564;2024-03-25T04:44:54;9.50;;;8.80;;
53961;SDS011;39868;53.398;6.564;2024-03-25T04:47:21;9.80;;;8.98;;
53961;SDS011;39868;53.398;6.564;2024-03-25T04:49:47;9.65;;;9.05;;
53961;SDS011;39868;53.398;6.564;2024-03-25T04:52:13;9.73;;;8.90;;
53961;SDS011;39868;53.398;6.564;2024-03-25T04:54:44;9.02;;;8.52;;
53961;SDS011;39868;53.398;6.564;2024-03-25T04:57:10;10.07;;;9.38;;
53961;SDS011;39868;53.398;6.564;2024-03-25T04:59:37;10.13;;;9.63;;
53961;SDS011;39868;53.398;6.564;2024-03-25T05:02:03;10.30;;;9.60;;
53961;SDS011;39868;53.398;6.564;2024-03-25T05:04:29;9.48;;;9.00;;
53961;SDS011;39868;53.398;6.564;2024-03-25T05:06:56;9.90;;;9.32;;
53961;SDS011;39868;53.398;6.564;2024-03-25T05:09:22;9.30;;;8.80;;
53961;SDS011;39868;53.398;6.564;2024-03-25T05:11:49;9.48;;;8.82;;
53961;SDS011;39868;53.398;6.564;2024-03-25T05:14:15;9.73;;;9.05;;
53961;SDS011;39868;53.398;6.564;2024-03-25T05:16:41;10.07;;;9.02;;
53961;SDS011;39868;53.398;6.564;2024-03-25T05:19:07;9.63;;;8.68;;
53961;SDS011;39868;53.398;6.564;2024-03-25T05:21:34;9.18;;;8.68;;
53961;SDS011;39868;53.398;6.564;2024-03-25T05:24:00;9.90;;;9.13;;
53961;SDS011;39868;53.398;6.564;2024-03-25T05:26:26;9.77;;;9.02;;
53961;SDS011;39868;53.398;6.564;2024-03-25T05:28:53;9.45;;;8.70;;
53961;SDS011;39868;53.398;6.564;2024-03-25T05:31:19;9.60;;;8.93;;
53961;SDS011;39868;53.398;6.564;2024-03-25T05:33:45;9.40;;;8.90;;
53961;SDS011;39868;53.398;6.564;2024-03-25T05:36:12;8.55;;;8.07;;
53961;SDS011;39868;53.398;6.564;2024-03-25T05:38:38;8.63;;;8.07;;
53961;SDS011;39868;53.398;6.564;2024-03-25T05:41:05;8.43;;;7.93;;
53961;SDS011;39868;53.398;6.564;2024-03-25T05:43:31;8.38;;;7.95;;
53961;SDS011;39868;53.398;6.564;2024-03-25T05:45:57;8.52;;;7.90;;
53961;SDS011;39868;53.398;6.564;2024-03-25T05:48:24;8.38;;;7.97;;
53961;SDS011;39868;53.398;6.564;2024-03-25T05:50:58;8.57;;;7.93;;
53961;SDS011;39868;53.398;6.564;2024-03-25T05:53:28;8.50;;;8.00;;
53961;SDS011;39868;53.398;6.564;2024-03-25T05:55:55;10.43;;;9.60;;
53961;SDS011;39868;53.398;6.564;2024-03-25T05:58:21;9.18;;;8.25;;
53961;SDS011;39868;53.398;6.564;2024-03-25T06:00:48;9.02;;;8.23;;
53961;SDS011;39868;53.398;6.564;2024-03-25T06:03:15;9.43;;;8.60;;
53961;SDS011;39868;53.398;6.564;2024-03-25T06:05:42;9.50;;;8.80;;
53961;SDS011;39868;53.398;6.564;2024-03-25T06:08:08;9.35;;;8.90;;
53961;SDS011;39868;53.398;6.564;2024-03-25T06:10:43;9.88;;;9.32;;
53961;SDS011;39868;53.398;6.564;2024-03-25T06:13:10;9.13;;;8.70;;
53961;SDS011;39868;53.398;6.564;2024-03-25T06:15:36;9.23;;;8.82;;
53961;SDS011;39868;53.398;6.564;2024-03-25T06:18:02;9.52;;;8.80;;
53961;SDS011;39868;53.398;6.564;2024-03-25T06:20:28;10.23;;;9.20;;
53961;SDS011;39868;53.398;6.564;2024-03-25T06:22:54;9.48;;;9.00;;
53961;SDS011;39868;53.398;6.564;2024-03-25T06:25:21;9.10;;;8.50;;
53961;SDS011;39868;53.398;6.564;2024-03-25T06:27:47;9.73;;;9.23;;
53961;SDS011;39868;53.398;6.564;2024-03-25T06:30:13;10.60;;;9.80;;
53961;SDS011;39868;53.398;6.564;2024-03-25T06:32:58;9.73;;;9.13;;
53961;SDS011;39868;53.398;6.564;2024-03-25T06:35:43;9.95;;;9.50;;
53961;SDS011;39868;53.398;6.564;2024-03-25T06:38:10;10.65;;;9.95;;
53961;SDS011;39868;53.398;6.564;2024-03-25T06:40:37;10.55;;;9.75;;
53961;SDS011;39868;53.398;6.564;2024-03-25T06:43:04;10.32;;;9.50;;
53961;SDS011;39868;53.398;6.564;2024-03-25T06:45:30;10.13;;;9.63;;
53961;SDS011;39868;53.398;6.564;2024-03-25T06:47:57;10.43;;;9.63;;
53961;SDS011;39868;53.398;6.564;2024-03-25T06:50:24;9.95;;;9.23;;
53961;SDS011;39868;53.398;6.564;2024-03-25T06:52:50;10.15;;;9.50;;
53961;SDS011;39868;53.398;6.564;2024-03-25T06:55:17;9.90;;;9.38;;
53961;SDS011;39868;53.398;6.564;2024-03-25T06:57:48;10.82;;;10.00;;
53961;SDS011;39868;53.398;6.564;2024-03-25T07:00:14;10.55;;;9.85;;
53961;SDS011;39868;53.398;6.564;2024-03-25T07:02:41;10.55;;;9.95;;
53961;SDS011;39868;53.398;6.564;2024-03-25T07:05:07;10.30;;;9.60;;
53961;SDS011;39868;53.398;6.564;2024-03-25T07:07:34;10.45;;;9.93;;
53961;SDS011;39868;53.398;6.564;2024-03-25T07:10:00;10.65;;;9.95;;
53961;SDS011;39868;53.398;6.564;2024-03-25T07:12:27;10.15;;;9.65;;
53961;SDS011;39868;53.398;6.564;2024-03-25T07:14:54;11.00;;;10.30;;
53961;SDS011;39868;53.398;6.564;2024-03-25T07:17:20;10.55;;;9.88;;
53961;SDS011;39868;53.398;6.564;2024-03-25T07:19:50;10.93;;;10.30;;
53961;SDS011;39868;53.398;6.564;2024-03-25T07:22:17;10.30;;;9.80;;
53961;SDS011;39868;53.398;6.564;2024-03-25T07:24:44;11.48;;;10.82;;
53961;SDS011;39868;53.398;6.564;2024-03-25T07:27:10;10.77;;;10.23;;
53961;SDS011;39868;53.398;6.564;2024-03-25T07:29:37;11.43;;;10.68;;
53961;SDS011;39868;53.398;6.564;2024-03-25T07:32:03;11.10;;;10.38;;
53961;SDS011;39868;53.398;6.564;2024-03-25T07:34:29;10.48;;;9.93;;
53961;SDS011;39868;53.398;6.564;2024-03-25T07:36:56;10.93;;;9.98;;
53961;SDS011;39868;53.398;6.564;2024-03-25T07:39:22;10.52;;;9.98;;
53961;SDS011;39868;53.398;6.564;2024-03-25T07:41:52;10.95;;;10.27;;
53961;SDS011;39868;53.398;6.564;2024-03-25T07:44:19;10.70;;;10.10;;
53961;SDS011;39868;53.398;6.564;2024-03-25T07:46:45;10.50;;;10.00;;
53961;SDS011;39868;53.398;6.564;2024-03-25T07:49:11;10.65;;;9.93;;
53961;SDS011;39868;53.398;6.564;2024-03-25T07:51:38;11.05;;;10.18;;
53961;SDS011;39868;53.398;6.564;2024-03-25T07:54:05;10.85;;;9.98;;
53961;SDS011;39868;53.398;6.564;2024-03-25T07:56:31;10.82;;;10.30;;
53961;SDS011;39868;53.398;6.564;2024-03-25T07:59:02;10.43;;;9.88;;
53961;SDS011;39868;53.398;6.564;2024-03-25T08:01:29;11.15;;;10.43;;
53961;SDS011;39868;53.398;6.564;2024-03-25T08:03:55;10.40;;;9.90;;
53961;SDS011;39868;53.398;6.564;2024-03-25T08:06:22;10.55;;;10.05;;
53961;SDS011;39868;53.398;6.564;2024-03-25T08:08:48;10.23;;;9.73;;
53961;SDS011;39868;53.398;6.564;2024-03-25T08:11:14;10.32;;;9.73;;
53961;SDS011;39868;53.398;6.564;2024-03-25T08:13:41;10.38;;;9.73;;
53961;SDS011;39868;53.398;6.564;2024-03-25T08:16:07;10.70;;;9.95;;
53961;SDS011;39868;53.398;6.564;2024-03-25T08:18:33;10.13;;;9.63;;
53961;SDS011;39868;53.398;6.564;2024-03-25T08:20:59;10.52;;;9.85;;
53961;SDS011;39868;53.398;6.564;2024-03-25T08:23:25;10.15;;;9.65;;
53961;SDS011;39868;53.398;6.564;2024-03-25T08:25:52;10.10;;;9.50;;
53961;SDS011;39868;53.398;6.564;2024-03-25T08:28:18;9.82;;;9.25;;
53961;SDS011;39868;53.398;6.564;2024-03-25T08:30:44;9.75;;;9.20;;
53961;SDS011;39868;53.398;6.564;2024-03-25T08:33:10;9.90;;;9.40;;
53961;SDS011;39868;53.398;6.564;2024-03-25T08:35:37;9.85;;;9.27;;
53961;SDS011;39868;53.398;6.564;2024-03-25T08:38:03;9.32;;;8.82;;
53961;SDS011;39868;53.398;6.564;2024-03-25T08:40:30;10.18;;;9.60;;
53961;SDS011;39868;53.398;6.564;2024-03-25T08:42:56;10.13;;;9.52;;
53961;SDS011;39868;53.398;6.564;2024-03-25T08:45:23;10.23;;;9.73;;
53961;SDS011;39868;53.398;6.564;2024-03-25T08:47:49;10.15;;;9.50;;
53961;SDS011;39868;53.398;6.564;2024-03-25T08:50:15;9.90;;;9.38;;
53961;SDS011;39868;53.398;6.564;2024-03-25T08:52:41;10.10;;;9.57;;
53961;SDS011;39868;53.398;6.564;2024-03-25T08:55:07;10.02;;;9.50;;
53961;SDS011;39868;53.398;6.564;2024-03-25T08:57:34;10.00;;;9.20;;
53961;SDS011;39868;53.398;6.564;2024-03-25T09:00:02;9.90;;;9.30;;
53961;SDS011;39868;53.398;6.564;2024-03-25T09:02:29;10.10;;;9.38;;
53961;SDS011;39868;53.398;6.564;2024-03-25T09:04:55;9.48;;;8.93;;
53961;SDS011;39868;53.398;6.564;2024-03-25T09:07:22;9.90;;;9.20;;
53961;SDS011;39868;53.398;6.564;2024-03-25T09:09:48;10.02;;;9.05;;
53961;SDS011;39868;53.398;6.564;2024-03-25T09:12:33;9.43;;;8.63;;
53961;SDS011;39868;53.398;6.564;2024-03-25T09:14:59;11.57;;;8.43;;
53961;SDS011;39868;53.398;6.564;2024-03-25T09:17:25;9.45;;;8.63;;
53961;SDS011;39868;53.398;6.564;2024-03-25T09:19:51;7.93;;;7.53;;
53961;SDS011;39868;53.398;6.564;2024-03-25T09:22:17;8.50;;;7.97;;
53961;SDS011;39868;53.398;6.564;2024-03-25T09:24:44;8.82;;;8.30;;
53961;SDS011;39868;53.398;6.564;2024-03-25T09:27:10;8.57;;;8.13;;
53961;SDS011;39868;53.398;6.564;2024-03-25T09:29:37;9.05;;;8.23;;
53961;SDS011;39868;53.398;6.564;2024-03-25T09:32:03;8.90;;;8.50;;
53961;SDS011;39868;53.398;6.564;2024-03-25T09:34:29;9.18;;;8.68;;
53961;SDS011;39868;53.398;6.564;2024-03-25T09:36:56;8.43;;;7.95;;
53961;SDS011;39868;53.398;6.564;2024-03-25T09:39:22;8.90;;;8.40;;
53961;SDS011;39868;53.398;6.564;2024-03-25T09:41:48;9.10;;;8.60;;
53961;SDS011;39868;53.398;6.564;2024-03-25T09:44:18;9.60;;;9.02;;
53961;SDS011;39868;53.398;6.564;2024-03-25T09:46:49;10.13;;;9.43;;
53961;SDS011;39868;53.398;6.564;2024-03-25T09:49:15;9.15;;;8.65;;
53961;SDS011;39868;53.398;6.564;2024-03-25T09:51:43;9.38;;;8.88;;
53961;SDS011;39868;53.398;6.564;2024-03-25T09:54:09;9.60;;;8.90;;
53961;SDS011;39868;53.398;6.564;2024-03-25T09:56:35;8.85;;;8.35;;
53961;SDS011;39868;53.398;6.564;2024-03-25T09:59:02;9.10;;;8.57;;
53961;SDS011;39868;53.398;6.564;2024-03-25T10:01:29;9.23;;;8.57;;
53961;SDS011;39868;53.398;6.564;2024-03-25T10:03:55;8.60;;;8.25;;
53961;SDS011;39868;53.398;6.564;2024-03-25T10:06:22;9.43;;;8.80;;
53961;SDS011;39868;53.398;6.564;2024-03-25T10:08:52;8.98;;;8.23;;
53961;SDS011;39868;53.398;6.564;2024-03-25T10:11:19;9.02;;;8.63;;
53961;SDS011;39868;53.398;6.564;2024-03-25T10:13:45;9.05;;;8.63;;
53961;SDS011;39868;53.398;6.564;2024-03-25T10:16:12;8.50;;;7.90;;
53961;SDS011;39868;53.398;6.564;2024-03-25T10:18:38;8.60;;;7.85;;
53961;SDS011;39868;53.398;6.564;2024-03-25T10:21:09;9.02;;;8.40;;
53961;SDS011;39868;53.398;6.564;2024-03-25T10:23:35;8.02;;;7.72;;
53961;SDS011;39868;53.398;6.564;2024-03-25T10:26:07;8.77;;;8.27;;
53961;SDS011;39868;53.398;6.564;2024-03-25T10:28:34;8.35;;;7.85;;
53961;SDS011;39868;53.398;6.564;2024-03-25T10:31:03;8.60;;;8.15;;
53961;SDS011;39868;53.398;6.564;2024-03-25T10:33:31;8.32;;;7.82;;
53961;SDS011;39868;53.398;6.564;2024-03-25T10:35:57;8.68;;;8.13;;
53961;SDS011;39868;53.398;6.564;2024-03-25T10:38:26;8.15;;;7.60;;
53961;SDS011;39868;53.398;6.564;2024-03-25T10:40:54;8.30;;;7.88;;
53961;SDS011;39868;53.398;6.564;2024-03-25T10:43:21;8.80;;;8.00;;
53961;SDS011;39868;53.398;6.564;2024-03-25T10:45:55;8.95;;;8.55;;
53961;SDS011;39868;53.398;6.564;2024-03-25T10:48:26;9.38;;;8.63;;
53961;SDS011;39868;53.398;6.564;2024-03-25T10:50:55;8.82;;;8.38;;
53961;SDS011;39868;53.398;6.564;2024-03-25T10:53:22;8.07;;;7.68;;
53961;SDS011;39868;53.398;6.564;2024-03-25T10:55:54;8.80;;;8.40;;
53961;SDS011;39868;53.398;6.564;2024-03-25T10:58:22;8.70;;;8.20;;
53961;SDS011;39868;53.398;6.564;2024-03-25T11:00:49;8.15;;;7.55;;
53961;SDS011;39868;53.398;6.564;2024-03-25T11:03:17;8.00;;;7.50;;
53961;SDS011;39868;53.398;6.564;2024-03-25T11:05:47;7.82;;;7.40;;
53961;SDS011;39868;53.398;6.564;2024-03-25T11:08:13;8.85;;;8.20;;
53961;SDS011;39868;53.398;6.564;2024-03-25T11:10:43;8.60;;;7.88;;
53961;SDS011;39868;53.398;6.564;2024-03-25T11:13:14;9.18;;;8.68;;
53961;SDS011;39868;53.398;6.564;2024-03-25T11:15:42;10.23;;;9.43;;
53961;SDS011;39868;53.398;6.564;2024-03-25T11:18:14;8.60;;;8.00;;
53961;SDS011;39868;53.398;6.564;2024-03-25T11:20:44;8.82;;;8.15;;
53961;SDS011;39868;53.398;6.564;2024-03-25T11:23:10;9.27;;;8.48;;
53961;SDS011;39868;53.398;6.564;2024-03-25T11:25:38;9.68;;;9.05;;
53961;SDS011;39868;53.398;6.564;2024-03-25T11:28:06;9.20;;;8.70;;
53961;SDS011;39868;53.398;6.564;2024-03-25T11:30:32;9.15;;;8.50;;
53961;SDS011;39868;53.398;6.564;2024-03-25T11:33:01;9.38;;;8.63;;
53961;SDS011;39868;53.398;6.564;2024-03-25T11:35:36;8.40;;;7.90;;
53961;SDS011;39868;53.398;6.564;2024-03-25T11:38:03;8.85;;;8.18;;
53961;SDS011;39868;53.398;6.564;2024-03-25T11:40:30;8.20;;;7.80;;
53961;SDS011;39868;53.398;6.564;2024-03-25T11:42:56;8.48;;;8.13;;
53961;SDS011;39868;53.398;6.564;2024-03-25T11:45:24;8.07;;;7.68;;
53961;SDS011;39868;53.398;6.564;2024-03-25T11:47:50;9.13;;;8.32;;
53961;SDS011;39868;53.398;6.564;2024-03-25T11:50:17;9.50;;;8.80;;
53961;SDS011;39868;53.398;6.564;2024-03-25T11:52:44;8.48;;;8.10;;
53961;SDS011;39868;53.398;6.564;2024-03-25T11:55:16;8.65;;;8.15;;
53961;SDS011;39868;53.398;6.564;2024-03-25T11:57:42;8.93;;;8.27;;
53961;SDS011;39868;53.398;6.564;2024-03-25T12:00:09;8.20;;;7.80;;
53961;SDS011;39868;53.398;6.564;2024-03-25T12:02:43;8.63;;;8.10;;
53961;SDS011;39868;53.398;6.564;2024-03-25T12:07:38;7.63;;;7.22;;
53961;SDS011;39868;53.398;6.564;2024-03-25T12:10:05;8.20;;;7.80;;
53961;SDS011;39868;53.398;6.564;2024-03-25T12:12:50;8.15;;;7.55;;
53961;SDS011;39868;53.398;6.564;2024-03-25T12:15:19;8.50;;;8.00;;
53961;SDS011;39868;53.398;6.564;2024-03-25T12:17:46;11.25;;;8.65;;
53961;SDS011;39868;53.398;6.564;2024-03-25T12:20:13;8.85;;;8.00;;
53961;SDS011;39868;53.398;6.564;2024-03-25T12:22:41;8.50;;;7.80;;
53961;SDS011;39868;53.398;6.564;2024-03-25T12:25:07;7.90;;;7.47;;
53961;SDS011;39868;53.398;6.564;2024-03-25T12:27:35;8.35;;;7.65;;
53961;SDS011;39868;53.398;6.564;2024-03-25T12:35:03;8.57;;;7.97;;
53961;SDS011;39868;53.398;6.564;2024-03-25T12:37:33;8.70;;;8.15;;
53961;SDS011;39868;53.398;6.564;2024-03-25T12:39:59;8.43;;;7.82;;
53961;SDS011;39868;53.398;6.564;2024-03-25T12:42:28;8.40;;;7.80;;
53961;SDS011;39868;53.398;6.564;2024-03-25T12:44:55;7.40;;;6.78;;
53961;SDS011;39868;53.398;6.564;2024-03-25T12:47:21;7.80;;;7.30;;
53961;SDS011;39868;53.398;6.564;2024-03-25T12:49:47;7.70;;;7.10;;
53961;SDS011;39868;53.398;6.564;2024-03-25T12:52:13;8.25;;;7.50;;
53961;SDS011;39868;53.398;6.564;2024-03-25T12:54:39;8.98;;;7.30;;
53961;SDS011;39868;53.398;6.564;2024-03-25T12:57:07;7.60;;;7.00;;
53961;SDS011;39868;53.398;6.564;2024-03-25T12:59:33;7.32;;;6.82;;
53961;SDS011;39868;53.398;6.564;2024-03-25T13:01:59;8.18;;;7.00;;
53961;SDS011;39868;53.398;6.564;2024-03-25T13:04:26;7.93;;;7.38;;
53961;SDS011;39868;53.398;6.564;2024-03-25T13:06:52;8.93;;;7.13;;
53961;SDS011;39868;53.398;6.564;2024-03-25T13:09:18;8.52;;;7.90;;
53961;SDS011;39868;53.398;6.564;2024-03-25T13:11:45;7.43;;;6.90;;
53961;SDS011;39868;53.398;6.564;2024-03-25T13:14:12;7.28;;;6.90;;
53961;SDS011;39868;53.398;6.564;2024-03-25T13:16:38;8.95;;;7.47;;
53961;SDS011;39868;53.398;6.564;2024-03-25T13:19:06;7.50;;;6.85;;
53961;SDS011;39868;53.398;6.564;2024-03-25T13:21:32;7.60;;;7.00;;
53961;SDS011;39868;53.398;6.564;2024-03-25T13:23:59;7.72;;;7.18;;
53961;SDS011;39868;53.398;6.564;2024-03-25T13:26:26;7.05;;;6.75;;
53961;SDS011;39868;53.398;6.564;2024-03-25T13:28:53;7.10;;;6.60;;
53961;SDS011;39868;53.398;6.564;2024-03-25T13:31:19;7.80;;;6.85;;
53961;SDS011;39868;53.398;6.564;2024-03-25T13:33:45;6.85;;;6.55;;
53961;SDS011;39868;53.398;6.564;2024-03-25T13:36:11;8.27;;;7.43;;
53961;SDS011;39868;53.398;6.564;2024-03-25T13:38:37;8.38;;;7.57;;
53961;SDS011;39868;53.398;6.564;2024-03-25T13:41:03;8.23;;;7.50;;
53961;SDS011;39868;53.398;6.564;2024-03-25T13:43:31;7.93;;;7.32;;
53961;SDS011;39868;53.398;6.564;2024-03-25T13:45:57;7.95;;;7.30;;
53961;SDS011;39868;53.398;6.564;2024-03-25T13:48:24;7.80;;;7.30;;
53961;SDS011;39868;53.398;6.564;2024-03-25T13:50:53;7.47;;;6.90;;
53961;SDS011;39868;53.398;6.564;2024-03-25T13:53:19;7.82;;;7.13;;
53961;SDS011;39868;53.398;6.564;2024-03-25T13:55:46;7.20;;;6.70;;
53961;SDS011;39868;53.398;6.564;2024-03-25T13:58:12;8.35;;;6.70;;
53961;SDS011;39868;53.398;6.564;2024-03-25T14:00:39;7.68;;;6.43;;
53961;SDS011;39868;53.398;6.564;2024-03-25T14:03:05;7.20;;;6.60;;
53961;SDS011;39868;53.398;6.564;2024-03-25T14:05:32;7.10;;;6.60;;
53961;SDS011;39868;53.398;6.564;2024-03-25T14:07:58;7.00;;;6.40;;
53961;SDS011;39868;53.398;6.564;2024-03-25T14:10:24;7.43;;;6.82;;
53961;SDS011;39868;53.398;6.564;2024-03-25T14:12:51;7.03;;;6.32;;
53961;SDS011;39868;53.398;6.564;2024-03-25T14:15:17;7.07;;;6.47;;
53961;SDS011;39868;53.398;6.564;2024-03-25T14:17:44;7.20;;;6.47;;
53961;SDS011;39868;53.398;6.564;2024-03-25T14:20:10;7.13;;;6.35;;
53961;SDS011;39868;53.398;6.564;2024-03-25T14:22:36;6.75;;;6.25;;
53961;SDS011;39868;53.398;6.564;2024-03-25T14:25:02;6.70;;;6.20;;
53961;SDS011;39868;53.398;6.564;2024-03-25T14:27:29;7.22;;;6.50;;
53961;SDS011;39868;53.398;6.564;2024-03-25T14:29:55;6.85;;;6.45;;
53961;SDS011;39868;53.398;6.564;2024-03-25T14:32:22;7.40;;;6.30;;
53961;SDS011;39868;53.398;6.564;2024-03-25T14:34:48;7.88;;;7.15;;
53961;SDS011;39868;53.398;6.564;2024-03-25T14:37:15;7.00;;;6.50;;
53961;SDS011;39868;53.398;6.564;2024-03-25T14:39:41;7.93;;;7.10;;
53961;SDS011;39868;53.398;6.564;2024-03-25T14:42:08;7.53;;;6.75;;
53961;SDS011;39868;53.398;6.564;2024-03-25T14:44:37;7.75;;;6.95;;
53961;SDS011;39868;53.398;6.564;2024-03-25T14:47:04;7.78;;;7.05;;
53961;SDS011;39868;53.398;6.564;2024-03-25T14:49:30;8.93;;;6.93;;